createdAt,value
2022-09-06T00:01:59.184Z,6.40
2022-09-06T00:04:26.025Z,6.30
2022-09-06T00:06:52.831Z,5.47
2022-09-06T00:09:19.593Z,5.97
2022-09-06T00:11:46.328Z,6.37
2022-09-06T00:14:13.024Z,6.07
2022-09-06T00:16:40.647Z,6.40
2022-09-06T00:19:07.415Z,6.10
2022-09-06T00:21:35.594Z,5.50
2022-09-06T00:24:03.869Z,5.77
2022-09-06T00:26:30.629Z,5.93
2022-09-06T00:28:57.825Z,6.00
2022-09-06T00:31:26.524Z,5.87
2022-09-06T00:33:53.978Z,5.57
2022-09-06T00:36:22.068Z,5.47
2022-09-06T00:38:49.028Z,5.70
2022-09-06T00:41:16.971Z,5.70
2022-09-06T00:43:44.421Z,5.50
2022-09-06T00:46:17.493Z,5.60
2022-09-06T00:48:45.197Z,6.13
2022-09-06T00:51:14.959Z,5.27
2022-09-06T00:53:41.836Z,6.07
2022-09-06T00:56:09.176Z,5.53
2022-09-06T00:58:36.911Z,5.33
2022-09-06T01:01:04.001Z,6.10
2022-09-06T01:03:31.047Z,4.90
2022-09-06T01:06:26.346Z,5.20
2022-09-06T01:09:29.409Z,5.83
2022-09-06T01:12:01.104Z,5.90
2022-09-06T01:14:40.342Z,7.37
2022-09-06T01:17:25.576Z,5.80
2022-09-06T01:20:10.395Z,7.30
2022-09-06T01:23:14.463Z,7.67
2022-09-06T01:26:02.792Z,6.10
2022-09-06T01:28:46.393Z,6.53
2022-09-06T01:31:35.546Z,6.73
2022-09-06T01:34:20.651Z,7.63
2022-09-06T01:37:09.027Z,7.63
2022-09-06T01:39:37.700Z,7.63
2022-09-06T01:42:13.125Z,7.97
2022-09-06T01:45:10.875Z,7.63
2022-09-06T01:47:40.649Z,7.53
2022-09-06T01:50:28.607Z,7.70
2022-09-06T01:53:01.456Z,7.53
2022-09-06T01:55:37.953Z,7.90
2022-09-06T01:58:29.380Z,7.83
2022-09-06T02:01:14.515Z,7.47
2022-09-06T02:03:47.987Z,7.03
2022-09-06T02:06:23.822Z,7.70
2022-09-06T02:08:57.157Z,7.60
2022-09-06T02:11:25.575Z,7.47
2022-09-06T02:13:57.420Z,6.90
2022-09-06T02:16:27.504Z,7.10
2022-09-06T02:19:00.653Z,7.20
2022-09-06T02:21:31.898Z,6.87
2022-09-06T02:24:02.248Z,6.20
2022-09-06T02:26:33.260Z,6.63
2022-09-06T02:29:00.439Z,6.20
2022-09-06T02:31:34.994Z,5.70
2022-09-06T02:34:02.856Z,5.70
2022-09-06T02:36:31.766Z,5.47
2022-09-06T02:39:01.729Z,5.60
2022-09-06T02:41:30.835Z,4.90
2022-09-06T02:43:57.527Z,5.50
2022-09-06T02:46:24.499Z,5.30
2022-09-06T02:48:51.675Z,5.27
2022-09-06T02:51:18.672Z,5.23
2022-09-06T02:53:45.979Z,5.10
2022-09-06T02:56:12.891Z,5.20
2022-09-06T02:58:40.091Z,4.97
2022-09-06T03:01:06.999Z,5.77
2022-09-06T03:03:34.103Z,5.60
2022-09-06T03:06:00.909Z,5.30
2022-09-06T03:08:33.224Z,4.77
2022-09-06T03:11:01.003Z,4.90
2022-09-06T03:13:28.067Z,5.17
2022-09-06T03:15:56.769Z,5.50
2022-09-06T03:18:24.859Z,4.93
2022-09-06T03:20:52.588Z,5.20
2022-09-06T03:23:20.455Z,4.80
2022-09-06T03:25:47.307Z,4.90
2022-09-06T03:28:14.012Z,4.40
2022-09-06T03:30:40.922Z,4.97
2022-09-06T03:33:07.641Z,5.80
2022-09-06T03:35:34.393Z,5.40
2022-09-06T03:38:01.206Z,5.87
2022-09-06T03:40:28.068Z,5.80
2022-09-06T03:42:54.791Z,5.93
2022-09-06T03:45:21.707Z,5.40
2022-09-06T03:47:48.401Z,5.57
2022-09-06T03:50:15.114Z,5.80
2022-09-06T03:52:41.873Z,6.33
2022-09-06T03:55:09.091Z,6.00
2022-09-06T03:57:35.859Z,6.23
2022-09-06T04:00:02.924Z,5.97
2022-09-06T04:02:29.646Z,5.90
2022-09-06T04:04:56.405Z,5.87
2022-09-06T04:07:23.255Z,5.93
2022-09-06T04:09:50.011Z,5.37
2022-09-06T04:12:16.789Z,6.90
2022-09-06T04:14:43.507Z,6.07
2022-09-06T04:17:10.589Z,6.10
2022-09-06T04:19:37.356Z,6.23
2022-09-06T04:22:04.136Z,6.03
2022-09-06T04:24:30.826Z,5.80
2022-09-06T04:26:57.525Z,5.97
2022-09-06T04:29:24.619Z,6.40
2022-09-06T04:31:51.414Z,7.27
2022-09-06T04:34:19.723Z,6.10
2022-09-06T04:36:48.450Z,6.03
2022-09-06T04:39:15.494Z,7.07
2022-09-06T04:41:42.656Z,6.50
2022-09-06T04:44:09.571Z,7.53
2022-09-06T04:46:36.359Z,7.37
2022-09-06T04:49:03.073Z,7.30
2022-09-06T04:51:29.832Z,7.73
2022-09-06T04:53:56.550Z,6.63
2022-09-06T04:56:25.973Z,7.87
2022-09-06T04:58:54.211Z,6.83
2022-09-06T05:01:21.395Z,6.47
2022-09-06T05:03:48.286Z,8.00
2022-09-06T05:06:21.423Z,6.40
2022-09-06T05:08:48.897Z,7.03
2022-09-06T05:11:17.048Z,6.97
2022-09-06T05:13:45.130Z,7.30
2022-09-06T05:16:12.075Z,6.20
2022-09-06T05:18:38.983Z,6.23
2022-09-06T05:21:05.984Z,6.77
2022-09-06T05:23:32.718Z,6.57
2022-09-06T05:25:59.457Z,6.40
2022-09-06T05:28:26.195Z,7.23
2022-09-06T05:30:52.967Z,6.57
2022-09-06T05:33:22.260Z,6.70
2022-09-06T05:35:49.453Z,6.93
2022-09-06T05:38:16.273Z,7.13
2022-09-06T05:40:43.326Z,7.27
2022-09-06T05:43:10.183Z,6.47
2022-09-06T05:45:37.144Z,6.93
2022-09-06T05:48:04.031Z,7.70
2022-09-06T05:50:30.898Z,8.10
2022-09-06T05:52:57.608Z,7.43
2022-09-06T05:55:24.389Z,7.13
2022-09-06T05:57:51.138Z,6.90
2022-09-06T06:00:17.966Z,7.60
2022-09-06T06:02:48.324Z,7.67
2022-09-06T06:05:15.740Z,8.67
2022-09-06T06:07:42.829Z,9.13
2022-09-06T06:10:09.916Z,9.50
2022-09-06T06:12:36.824Z,9.10
2022-09-06T06:15:05.790Z,9.30
2022-09-06T06:17:32.765Z,9.37
2022-09-06T06:19:59.567Z,8.70
2022-09-06T06:22:26.267Z,8.73
2022-09-06T06:24:53.090Z,9.23
2022-09-06T06:27:19.831Z,8.53
2022-09-06T06:29:46.587Z,8.70
2022-09-06T06:32:13.356Z,8.20
2022-09-06T06:34:40.054Z,8.97
2022-09-06T06:37:06.804Z,8.70
2022-09-06T06:39:33.668Z,7.97
2022-09-06T06:42:00.540Z,8.00
2022-09-06T06:44:29.963Z,7.40
2022-09-06T06:46:58.059Z,7.60
2022-09-06T06:49:25.230Z,6.80
2022-09-06T06:51:51.998Z,7.10
2022-09-06T06:54:18.904Z,6.60
2022-09-06T06:56:45.785Z,6.33
2022-09-06T06:59:12.555Z,6.87
2022-09-06T07:01:39.518Z,5.77
2022-09-06T07:04:07.211Z,6.93
2022-09-06T07:12:21.573Z,7.30
2022-09-06T07:14:48.296Z,5.90
2022-09-06T07:17:15.020Z,6.80
2022-09-06T07:22:28.529Z,5.30
2022-09-06T07:24:55.339Z,6.30
2022-09-06T07:30:09.983Z,6.30
2022-09-06T07:32:36.938Z,6.70
2022-09-06T07:35:04.024Z,5.80
2022-09-06T07:37:30.743Z,6.67
2022-09-06T07:39:57.556Z,5.70
2022-09-06T07:42:24.388Z,6.40
2022-09-06T07:44:51.149Z,7.13
2022-09-06T07:53:08.392Z,6.00
2022-09-06T07:55:37.989Z,5.43
2022-09-06T07:58:04.902Z,5.53
2022-09-06T08:00:31.956Z,5.20
2022-09-06T08:02:59.196Z,5.27
2022-09-06T08:10:59.595Z,5.23
2022-09-06T08:13:26.391Z,4.70
2022-09-06T08:16:08.279Z,5.50
2022-09-06T08:18:36.045Z,4.80
2022-09-06T08:21:16.104Z,5.30
2022-09-06T08:23:48.449Z,4.80
2022-09-06T08:26:19.359Z,4.50
2022-09-06T08:28:46.616Z,5.30
2022-09-06T08:31:15.777Z,4.73
2022-09-06T08:33:44.306Z,4.97
2022-09-06T08:36:11.814Z,5.30
2022-09-06T08:38:38.610Z,5.17
2022-09-06T08:41:14.183Z,4.83
2022-09-06T08:46:52.092Z,5.33
2022-09-06T08:49:19.210Z,4.33
2022-09-06T08:51:48.974Z,5.00
2022-09-06T08:54:26.580Z,5.13
2022-09-06T08:57:02.446Z,4.50
2022-09-06T08:59:34.629Z,4.43
2022-09-06T09:02:17.002Z,4.73
2022-09-06T09:04:49.180Z,4.57
2022-09-06T09:07:21.894Z,5.30
2022-09-06T09:09:49.474Z,4.70
2022-09-06T09:12:20.516Z,5.20
2022-09-06T09:14:51.279Z,4.40
2022-09-06T09:17:22.989Z,4.80
2022-09-06T09:19:50.147Z,4.20
2022-09-06T09:22:19.406Z,4.57
2022-09-06T09:24:48.385Z,5.13
2022-09-06T09:27:22.785Z,4.30
2022-09-06T09:32:46.341Z,4.50
2022-09-06T09:35:37.224Z,5.00
2022-09-06T09:38:11.747Z,5.10
2022-09-06T09:41:00.493Z,4.93
2022-09-06T09:43:36.889Z,4.73
2022-09-06T09:46:22.997Z,4.13
2022-09-06T09:49:09.154Z,4.60
2022-09-06T09:51:42.110Z,5.07
2022-09-06T09:54:11.989Z,5.20
2022-09-06T09:56:48.897Z,5.00
2022-09-06T09:59:25.074Z,5.10
2022-09-06T10:01:56.082Z,4.23
2022-09-06T10:04:44.871Z,3.90
2022-09-06T10:07:15.194Z,4.03
2022-09-06T10:09:46.216Z,4.17
2022-09-06T10:12:30.055Z,3.60
2022-09-06T10:14:57.716Z,3.80
2022-09-06T10:17:46.018Z,3.73
2022-09-06T10:20:13.099Z,4.90
2022-09-06T10:23:03.033Z,3.53
2022-09-06T10:25:42.923Z,4.30
2022-09-06T10:28:20.375Z,3.80
2022-09-06T10:31:23.950Z,3.77
2022-09-06T10:34:18.556Z,4.60
2022-09-06T10:36:56.599Z,3.83
2022-09-06T10:39:47.676Z,3.73
2022-09-06T10:42:42.459Z,4.03
2022-09-06T10:45:30.778Z,2.97
2022-09-06T10:48:14.979Z,2.90
2022-09-06T10:50:47.491Z,3.13
2022-09-06T10:53:22.229Z,2.37
2022-09-06T10:55:57.838Z,2.83
2022-09-06T11:01:38.010Z,3.20
2022-09-06T11:04:12.745Z,2.57
2022-09-06T11:06:45.875Z,2.67
2022-09-06T11:09:29.358Z,2.83
2022-09-06T11:12:41.009Z,2.77
2022-09-06T11:15:10.606Z,3.30
2022-09-06T11:18:04.210Z,2.87
2022-09-06T11:20:44.528Z,3.33
2022-09-06T11:23:23.497Z,3.10
2022-09-06T11:25:58.973Z,2.30
2022-09-06T11:28:35.462Z,3.20
2022-09-06T11:31:04.392Z,3.27
2022-09-06T11:33:39.603Z,3.20
2022-09-06T11:36:36.503Z,3.13
2022-09-06T11:39:06.263Z,3.50
2022-09-06T11:41:36.674Z,3.93
2022-09-06T11:44:04.898Z,3.67
2022-09-06T11:46:34.783Z,3.70
2022-09-06T11:49:07.153Z,3.10
2022-09-06T11:51:39.244Z,3.47
2022-09-06T11:54:15.143Z,4.10
2022-09-06T11:56:53.809Z,2.80
2022-09-06T11:59:34.700Z,3.60
2022-09-06T12:02:41.275Z,4.60
2022-09-06T12:05:18.494Z,4.10
2022-09-06T12:08:10.366Z,3.13
2022-09-06T12:10:40.414Z,3.27
2022-09-06T12:13:55.547Z,3.57
2022-09-06T12:16:22.734Z,3.70
2022-09-06T12:18:49.544Z,3.47
2022-09-06T12:21:35.207Z,3.10
2022-09-06T12:24:03.157Z,3.40
2022-09-06T12:26:51.878Z,3.83
2022-09-06T12:29:28.248Z,3.20
2022-09-06T12:31:57.232Z,3.53
2022-09-06T12:34:31.196Z,3.90
2022-09-06T12:37:02.194Z,3.60
2022-09-06T12:39:29.255Z,3.90
2022-09-06T12:42:13.389Z,3.07
2022-09-06T12:44:51.033Z,3.43
2022-09-06T12:47:34.430Z,3.50
2022-09-06T12:50:10.195Z,4.10
2022-09-06T12:52:50.261Z,4.40
2022-09-06T12:55:35.862Z,3.50
2022-09-06T12:58:11.018Z,5.57
2022-09-06T13:00:44.370Z,4.40
2022-09-06T13:04:02.998Z,5.47
2022-09-06T13:06:33.819Z,5.30
2022-09-06T13:09:01.634Z,4.57
2022-09-06T13:11:34.260Z,5.20
2022-09-06T13:14:13.782Z,5.70
2022-09-06T13:16:47.078Z,5.30
2022-09-06T13:19:16.711Z,5.30
2022-09-06T13:21:46.048Z,5.70
2022-09-06T13:24:21.319Z,5.90
2022-09-06T13:26:48.494Z,4.57
2022-09-06T13:29:18.131Z,5.67
2022-09-06T13:31:50.179Z,5.10
2022-09-06T13:34:27.904Z,5.27
2022-09-06T13:37:01.109Z,4.63
2022-09-06T13:39:41.907Z,4.23
2022-09-06T13:42:10.898Z,4.60
2022-09-06T13:44:39.418Z,5.47
2022-09-06T13:47:06.444Z,5.37
2022-09-06T13:49:34.011Z,5.80
2022-09-06T13:52:02.626Z,5.37
2022-09-06T13:54:32.614Z,7.30
2022-09-06T13:57:01.583Z,5.30
2022-09-06T13:59:30.271Z,5.70
2022-09-06T14:02:07.665Z,5.17
2022-09-06T14:04:35.745Z,5.43
2022-09-06T14:07:02.883Z,5.30
2022-09-06T14:09:30.427Z,4.93
2022-09-06T14:11:57.303Z,5.40
2022-09-06T14:14:24.667Z,4.60
2022-09-06T14:16:51.560Z,4.73
2022-09-06T14:19:18.510Z,5.50
2022-09-06T14:21:45.346Z,5.47
2022-09-06T14:24:12.281Z,4.73
2022-09-06T14:26:39.479Z,4.73
2022-09-06T14:29:06.473Z,5.67
2022-09-06T14:31:33.240Z,5.17
2022-09-06T14:34:01.764Z,5.47
2022-09-06T14:36:29.944Z,5.43
2022-09-06T14:39:00.924Z,5.37
2022-09-06T14:41:28.185Z,4.83
2022-09-06T14:43:57.316Z,5.47
2022-09-06T14:46:26.082Z,5.63
2022-09-06T14:49:01.152Z,5.30
2022-09-06T14:51:29.278Z,5.10
2022-09-06T14:54:05.584Z,5.40
2022-09-06T14:56:32.590Z,5.17
2022-09-06T14:59:00.079Z,6.40
2022-09-06T15:01:37.336Z,5.43
2022-09-06T15:04:07.558Z,5.27
2022-09-06T15:06:36.883Z,6.30
2022-09-06T15:09:04.549Z,6.47
2022-09-06T15:11:40.701Z,5.77
2022-09-06T15:14:13.145Z,5.83
2022-09-06T15:16:40.084Z,6.83
2022-09-06T15:19:08.933Z,5.70
2022-09-06T15:21:36.185Z,6.17
2022-09-06T15:24:04.428Z,5.67
2022-09-06T15:26:34.800Z,6.33
2022-09-06T15:29:02.206Z,6.13
2022-09-06T15:31:29.615Z,6.20
2022-09-06T15:33:56.568Z,5.23
2022-09-06T15:36:24.116Z,5.47
2022-09-06T15:38:53.893Z,6.83
2022-09-06T15:41:27.118Z,6.47
2022-09-06T15:43:57.766Z,4.77
2022-09-06T15:46:38.383Z,5.03
2022-09-06T15:49:08.407Z,4.97
2022-09-06T15:51:37.170Z,4.63
2022-09-06T15:54:05.427Z,5.27
2022-09-06T15:56:32.536Z,4.20
2022-09-06T15:58:59.393Z,4.37
2022-09-06T16:01:26.997Z,4.67
2022-09-06T16:04:03.629Z,3.90
2022-09-06T16:06:33.725Z,3.30
2022-09-06T16:09:09.186Z,3.73
2022-09-06T16:11:37.099Z,2.93
2022-09-06T16:14:05.834Z,3.20
2022-09-06T16:16:33.415Z,3.07
2022-09-06T16:19:00.334Z,2.50
2022-09-06T16:21:32.002Z,2.93
2022-09-06T16:24:01.654Z,3.03
2022-09-06T16:26:32.226Z,2.90
2022-09-06T16:28:59.912Z,3.00
2022-09-06T16:31:27.785Z,3.10
2022-09-06T16:33:54.918Z,2.90
2022-09-06T16:36:22.311Z,3.23
2022-09-06T16:38:49.523Z,3.37
2022-09-06T16:41:26.023Z,3.40
2022-09-06T16:43:53.387Z,2.80
2022-09-06T16:46:22.158Z,2.60
2022-09-06T16:48:53.473Z,2.67
2022-09-06T16:51:22.094Z,3.00
2022-09-06T16:53:50.458Z,2.97
2022-09-06T16:56:20.502Z,3.00
2022-09-06T16:58:55.935Z,3.20
2022-09-06T17:01:24.186Z,2.90
2022-09-06T17:03:51.428Z,3.10
2022-09-06T17:06:19.277Z,3.33
2022-09-06T17:08:46.656Z,3.60
2022-09-06T17:11:16.677Z,3.33
2022-09-06T17:13:45.870Z,2.90
2022-09-06T17:16:31.326Z,2.37
2022-09-06T17:18:59.835Z,2.70
2022-09-06T17:21:27.599Z,3.00
2022-09-06T17:23:54.409Z,3.57
2022-09-06T17:26:22.770Z,3.33
2022-09-06T17:28:50.388Z,3.07
2022-09-06T17:31:22.280Z,3.33
2022-09-06T17:33:52.268Z,3.37
2022-09-06T17:36:27.852Z,3.20
2022-09-06T17:39:10.115Z,3.50
2022-09-06T17:41:39.829Z,3.70
2022-09-06T17:44:10.408Z,4.10
2022-09-06T17:46:41.175Z,4.80
2022-09-06T17:49:15.534Z,4.10
2022-09-06T17:51:42.976Z,4.07
2022-09-06T17:54:10.437Z,3.87
2022-09-06T17:56:37.519Z,3.63
2022-09-06T17:59:06.693Z,3.83
2022-09-06T18:01:39.264Z,4.10
2022-09-06T18:04:07.796Z,4.00
2022-09-06T18:06:37.021Z,4.40
2022-09-06T18:09:10.165Z,4.43
2022-09-06T18:11:39.317Z,3.83
2022-09-06T18:14:09.115Z,4.90
2022-09-06T18:16:38.249Z,4.47
2022-09-06T18:19:06.953Z,4.60
2022-09-06T18:21:37.223Z,4.43
2022-09-06T18:24:04.786Z,4.90
2022-09-06T18:26:32.207Z,5.93
2022-09-06T18:28:59.381Z,4.27
2022-09-06T18:31:27.722Z,4.80
2022-09-06T18:33:58.061Z,5.00
2022-09-06T18:36:31.203Z,5.10
2022-09-06T18:39:04.912Z,5.57
2022-09-06T18:41:51.701Z,5.60
2022-09-06T18:44:19.101Z,4.63
2022-09-06T18:46:45.901Z,5.33
2022-09-06T18:49:15.115Z,4.70
2022-09-06T18:51:42.718Z,4.70
2022-09-06T18:54:11.000Z,4.37
2022-09-06T18:56:38.617Z,5.33
2022-09-06T18:59:06.130Z,5.00
2022-09-06T19:01:35.116Z,4.73
2022-09-06T19:04:04.011Z,4.40
2022-09-06T19:06:32.988Z,3.93
2022-09-06T19:09:01.431Z,5.40
2022-09-06T19:11:28.731Z,4.50
2022-09-06T19:13:57.158Z,4.40
2022-09-06T19:16:25.912Z,4.70
2022-09-06T19:18:56.984Z,4.37
2022-09-06T19:21:25.576Z,4.77
2022-09-06T19:23:58.271Z,4.57
2022-09-06T19:26:26.912Z,4.80
2022-09-06T19:28:59.830Z,5.40
2022-09-06T19:31:29.472Z,5.50
2022-09-06T19:33:56.776Z,4.90
2022-09-06T19:36:25.052Z,5.33
2022-09-06T19:39:03.451Z,5.20
2022-09-06T19:41:39.195Z,5.37
2022-09-06T19:44:08.636Z,5.63
2022-09-06T19:46:36.428Z,5.73
2022-09-06T19:49:05.048Z,6.13
2022-09-06T19:51:33.254Z,7.00
2022-09-06T19:54:00.435Z,6.10
2022-09-06T19:56:33.833Z,7.83
2022-09-06T19:59:03.914Z,6.43
2022-09-06T20:01:32.776Z,7.50
2022-09-06T20:04:02.799Z,6.40
2022-09-06T20:06:30.897Z,6.80
2022-09-06T20:08:59.405Z,7.10
2022-09-06T20:11:29.623Z,7.23
2022-09-06T20:13:57.051Z,9.87
2022-09-06T20:16:24.942Z,8.27
2022-09-06T20:18:53.937Z,8.20
2022-09-06T20:21:21.159Z,8.13
2022-09-06T20:23:52.668Z,8.40
2022-09-06T20:26:20.777Z,8.57
2022-09-06T20:28:47.703Z,7.87
2022-09-06T20:31:18.017Z,8.00
2022-09-06T20:33:49.379Z,8.73
2022-09-06T20:36:17.079Z,8.50
2022-09-06T20:38:45.328Z,7.50
2022-09-06T20:41:13.390Z,6.83
2022-09-06T20:43:41.311Z,7.00
2022-09-06T20:46:18.471Z,7.50
2022-09-06T20:48:46.259Z,6.20
2022-09-06T20:51:15.933Z,7.37
2022-09-06T20:53:42.762Z,7.23
2022-09-06T20:56:21.571Z,7.17
2022-09-06T20:58:50.829Z,5.87
2022-09-06T21:01:22.643Z,5.70
2022-09-06T21:03:52.696Z,5.40
2022-09-06T21:06:21.206Z,5.33
2022-09-06T21:08:49.532Z,5.50
2022-09-06T21:11:16.649Z,6.00
2022-09-06T21:13:43.867Z,5.97
2022-09-06T21:16:11.100Z,6.23
2022-09-06T21:18:38.005Z,5.97
2022-09-06T21:21:08.591Z,5.37
2022-09-06T21:23:39.184Z,5.17
2022-09-06T21:26:08.613Z,5.93
2022-09-06T21:28:37.958Z,5.20
2022-09-06T21:31:09.701Z,5.37
2022-09-06T21:33:39.114Z,4.90
2022-09-06T21:36:07.856Z,4.83
2022-09-06T21:38:35.781Z,5.50
2022-09-06T21:41:04.087Z,5.40
2022-09-06T21:43:31.263Z,5.07
2022-09-06T21:46:08.412Z,4.50
2022-09-06T21:48:39.116Z,4.13
2022-09-06T21:51:10.710Z,4.60
2022-09-06T21:53:37.665Z,4.10
2022-09-06T21:56:05.630Z,4.00
2022-09-06T21:58:32.900Z,4.23
2022-09-06T22:01:01.138Z,4.50
2022-09-06T22:03:31.044Z,4.47
2022-09-06T22:05:58.090Z,4.87
2022-09-06T22:08:25.618Z,4.20
2022-09-06T22:10:52.451Z,4.20
2022-09-06T22:13:20.194Z,3.90
2022-09-06T22:15:47.334Z,4.43
2022-09-06T22:18:14.147Z,4.27
2022-09-06T22:20:40.978Z,4.40
2022-09-06T22:23:09.943Z,4.17
2022-09-06T22:25:36.769Z,3.43
2022-09-06T22:28:03.758Z,4.50
2022-09-06T22:30:31.107Z,4.70
2022-09-06T22:32:58.123Z,4.37
2022-09-06T22:35:24.862Z,4.50
2022-09-06T22:37:51.800Z,4.33
2022-09-06T22:40:18.964Z,5.07
2022-09-06T22:42:46.233Z,5.03
2022-09-06T22:45:12.993Z,5.17
2022-09-06T22:47:39.792Z,4.73
2022-09-06T22:50:07.284Z,4.90
2022-09-06T22:52:34.062Z,5.10
2022-09-06T22:55:00.851Z,5.73
2022-09-06T22:57:27.619Z,4.87
2022-09-06T22:59:54.407Z,6.10
2022-09-06T23:02:21.249Z,4.80
2022-09-06T23:04:48.136Z,5.30
2022-09-06T23:07:15.001Z,5.10
2022-09-06T23:09:42.336Z,4.77
2022-09-06T23:12:09.160Z,5.27
2022-09-06T23:14:35.969Z,5.43
2022-09-06T23:17:02.802Z,4.80
2022-09-06T23:19:29.554Z,4.97
2022-09-06T23:21:56.324Z,4.43
2022-09-06T23:24:23.158Z,4.37
2022-09-06T23:26:49.979Z,4.07
2022-09-06T23:29:16.741Z,4.10
2022-09-06T23:31:43.687Z,4.07
2022-09-06T23:34:10.681Z,3.90
2022-09-06T23:36:37.489Z,4.27
2022-09-06T23:39:04.369Z,4.03
2022-09-06T23:41:31.214Z,3.90
2022-09-06T23:43:58.182Z,3.53
2022-09-06T23:46:24.990Z,4.10
2022-09-06T23:48:52.095Z,4.00
2022-09-06T23:51:19.111Z,4.83
2022-09-06T23:53:46.189Z,3.93
2022-09-06T23:56:13.247Z,4.00
2022-09-06T23:58:40.487Z,4.37
